createdAt,value
2018-12-04T00:01:53.953Z,0.50
2018-12-04T00:06:57.437Z,0.73
2018-12-04T00:12:00.928Z,0.70
2018-12-04T00:17:04.864Z,0.70
2018-12-04T00:22:08.454Z,0.43
2018-12-04T00:27:11.893Z,0.53
2018-12-04T00:32:15.541Z,0.67
2018-12-04T00:37:20.074Z,0.50
2018-12-04T00:42:23.721Z,0.50
2018-12-04T00:47:27.571Z,0.50
2018-12-04T00:52:31.244Z,0.47
2018-12-04T00:57:35.132Z,0.70
2018-12-04T01:02:38.988Z,0.50
2018-12-04T01:07:42.655Z,0.53
2018-12-04T01:12:46.728Z,0.60
2018-12-04T01:17:50.744Z,0.70
2018-12-04T01:22:56.934Z,0.70
2018-12-04T01:28:00.390Z,0.50
2018-12-04T01:33:04.056Z,0.70
2018-12-04T01:38:07.760Z,0.70
2018-12-04T01:43:11.374Z,1.10
2018-12-04T01:48:15.062Z,0.77
2018-12-04T01:53:18.564Z,0.77
2018-12-04T01:58:22.252Z,1.00
2018-12-04T02:03:25.988Z,0.70
2018-12-04T02:08:30.051Z,0.82
2018-12-04T02:13:33.653Z,0.67
2018-12-04T02:18:37.359Z,0.80
2018-12-04T02:23:40.831Z,0.60
2018-12-04T02:28:44.288Z,0.80
2018-12-04T02:33:47.764Z,0.77
2018-12-04T02:38:51.218Z,0.65
2018-12-04T02:43:54.666Z,0.60
2018-12-04T02:48:58.143Z,0.90
2018-12-04T02:54:01.722Z,0.90
2018-12-04T02:59:05.526Z,0.90
2018-12-04T03:04:09.273Z,0.70
2018-12-04T03:09:12.993Z,0.70
2018-12-04T03:14:16.492Z,0.60
2018-12-04T03:19:20.109Z,0.70
2018-12-04T03:24:23.927Z,0.90
2018-12-04T03:29:27.393Z,0.90
2018-12-04T03:34:30.886Z,0.87
2018-12-04T03:39:34.360Z,0.63
2018-12-04T03:44:37.823Z,0.80
2018-12-04T03:49:41.327Z,0.50
2018-12-04T03:54:44.830Z,0.70
2018-12-04T03:59:48.689Z,0.60
2018-12-04T04:04:52.145Z,0.80
2018-12-04T04:09:55.766Z,0.50
2018-12-04T04:14:59.450Z,0.80
2018-12-04T04:20:03.718Z,0.83
2018-12-04T04:25:07.580Z,0.80
2018-12-04T04:30:11.298Z,0.60
2018-12-04T04:40:27.238Z,0.80
2018-12-04T04:45:30.967Z,0.77
2018-12-04T04:50:34.571Z,0.80
2018-12-04T04:55:38.033Z,0.50
2018-12-04T05:00:41.816Z,0.83
2018-12-04T05:05:45.478Z,0.70
2018-12-04T05:10:49.022Z,0.87
2018-12-04T05:15:52.751Z,1.00
2018-12-04T05:20:56.418Z,0.90
2018-12-04T05:26:00.095Z,0.90
2018-12-04T05:31:05.225Z,0.80
2018-12-04T05:36:09.327Z,0.50
2018-12-04T05:41:12.842Z,0.77
2018-12-04T05:46:16.627Z,0.73
2018-12-04T05:56:34.964Z,0.70
2018-12-04T06:01:38.729Z,1.33
2018-12-04T06:06:42.294Z,0.97
2018-12-04T06:11:46.155Z,1.00
2018-12-04T06:16:50.428Z,0.80
2018-12-04T06:21:54.204Z,0.70
2018-12-04T06:26:57.748Z,0.93
2018-12-04T06:32:01.293Z,0.80
2018-12-04T06:37:04.790Z,0.90
2018-12-04T06:42:08.468Z,0.60
2018-12-04T06:47:12.054Z,0.83
2018-12-04T06:52:16.453Z,0.60
2018-12-04T06:57:20.141Z,0.40
2018-12-04T07:02:23.741Z,0.72
2018-12-04T07:07:27.398Z,0.40
2018-12-04T07:12:31.093Z,0.53
2018-12-04T07:17:34.691Z,0.60
2018-12-04T07:22:38.158Z,0.40
2018-12-04T07:27:41.777Z,0.60
2018-12-04T07:32:45.532Z,0.50
2018-12-04T07:43:02.223Z,0.40
2018-12-04T07:48:05.678Z,0.40
2018-12-04T07:53:09.133Z,0.50
2018-12-04T07:58:12.658Z,0.40
2018-12-04T08:03:16.773Z,0.43
2018-12-04T08:08:20.252Z,0.50
2018-12-04T08:13:24.135Z,0.50
2018-12-04T08:18:27.601Z,0.53
2018-12-04T08:23:31.373Z,0.47
2018-12-04T08:28:34.836Z,0.60
2018-12-04T08:33:38.288Z,0.70
2018-12-04T08:38:41.741Z,0.57
2018-12-04T08:43:45.229Z,0.50
2018-12-04T08:48:48.707Z,0.40
2018-12-04T08:53:52.177Z,0.50
2018-12-04T08:58:55.631Z,0.60
2018-12-04T09:03:59.399Z,0.57
2018-12-04T09:09:03.489Z,0.60
2018-12-04T09:14:07.076Z,0.70
2018-12-04T09:19:10.691Z,0.60
2018-12-04T09:24:14.371Z,0.75
2018-12-04T09:29:18.054Z,0.70
2018-12-04T09:34:21.634Z,1.20
2018-12-04T09:39:25.113Z,0.57
2018-12-04T09:44:28.714Z,0.80
2018-12-04T09:49:32.326Z,0.40
2018-12-04T09:54:36.125Z,0.63
2018-12-04T09:59:39.956Z,0.70
2018-12-04T10:04:43.479Z,0.67
2018-12-04T10:09:47.610Z,0.53
2018-12-04T10:14:51.360Z,0.70
2018-12-04T10:19:54.947Z,0.70
2018-12-04T10:24:58.392Z,0.67
2018-12-04T10:30:01.856Z,0.43
2018-12-04T10:35:05.574Z,0.50
2018-12-04T10:40:09.191Z,0.60
2018-12-04T10:45:12.907Z,0.50
2018-12-04T10:50:16.584Z,0.60
2018-12-04T10:55:20.393Z,0.50
2018-12-04T11:00:29.591Z,0.70
2018-12-04T11:05:33.247Z,1.00
2018-12-04T11:10:36.948Z,0.60
2018-12-04T11:15:40.393Z,0.70
2018-12-04T11:20:43.852Z,0.70
2018-12-04T11:25:48.010Z,0.68
2018-12-04T11:30:51.521Z,0.77
2018-12-04T11:35:56.281Z,0.70
2018-12-04T11:40:59.911Z,0.60
2018-12-04T11:46:03.421Z,0.70
2018-12-04T11:51:06.894Z,0.80
2018-12-04T11:56:10.354Z,0.70
2018-12-04T12:01:18.038Z,0.90
2018-12-04T12:06:21.728Z,0.80
2018-12-04T12:11:25.198Z,0.80
2018-12-04T12:16:28.651Z,1.10
2018-12-04T12:21:32.114Z,0.90
2018-12-04T12:26:35.587Z,1.00
2018-12-04T12:31:39.052Z,1.00
2018-12-04T12:36:42.592Z,1.10
2018-12-04T12:41:46.204Z,0.80
2018-12-04T12:46:49.946Z,1.50
2018-12-04T12:51:53.565Z,1.20
2018-12-04T12:56:57.068Z,0.80
2018-12-04T13:02:00.759Z,0.93
2018-12-04T13:07:04.558Z,1.10
2018-12-04T13:12:08.170Z,1.00
2018-12-04T13:17:11.848Z,0.80
2018-12-04T13:22:15.338Z,1.17
2018-12-04T13:27:19.401Z,1.03
2018-12-04T13:32:23.833Z,1.30
2018-12-04T13:37:27.347Z,1.00
2018-12-04T13:42:31.102Z,0.97
2018-12-04T13:47:34.698Z,1.50
2018-12-04T13:52:38.385Z,1.20
2018-12-04T13:57:42.047Z,1.00
2018-12-04T14:02:45.709Z,1.33
2018-12-04T14:07:49.542Z,1.37
2018-12-04T14:12:53.062Z,1.10
2018-12-04T14:17:57.063Z,1.53
2018-12-04T14:23:00.596Z,1.17
2018-12-04T14:28:04.144Z,1.60
2018-12-04T14:33:07.958Z,1.00
2018-12-04T14:38:11.434Z,1.27
2018-12-04T14:43:15.051Z,1.50
2018-12-04T14:48:19.620Z,1.57
2018-12-04T14:53:23.329Z,1.37
2018-12-04T14:58:26.903Z,1.90
2018-12-04T15:03:30.499Z,1.97
2018-12-04T15:08:34.052Z,1.97
2018-12-04T15:13:37.507Z,1.73
2018-12-04T15:18:41.078Z,1.50
2018-12-04T15:23:44.666Z,1.70
2018-12-04T15:28:48.366Z,1.77
2018-12-04T15:33:51.883Z,1.97
2018-12-04T15:38:55.497Z,2.00
2018-12-04T15:43:59.237Z,2.40
2018-12-04T15:49:03.025Z,2.50
2018-12-04T15:54:06.754Z,2.30
2018-12-04T15:59:10.604Z,2.00
2018-12-04T16:04:14.101Z,2.40
2018-12-04T16:09:17.589Z,2.37
2018-12-04T16:14:21.075Z,2.27
2018-12-04T16:19:24.570Z,2.30
2018-12-04T16:24:28.042Z,2.50
2018-12-04T16:29:31.540Z,2.30
2018-12-04T16:34:35.199Z,2.00
2018-12-04T16:39:38.964Z,1.80
2018-12-04T16:44:42.651Z,2.03
2018-12-04T16:49:46.578Z,5.33
2018-12-04T16:54:50.801Z,3.55
2018-12-04T16:59:54.525Z,2.80
2018-12-04T17:04:58.227Z,2.57
2018-12-04T17:10:01.845Z,2.53
2018-12-04T17:15:06.557Z,5.17
2018-12-04T17:20:10.301Z,4.13
2018-12-04T17:25:15.292Z,3.30
2018-12-04T17:30:19.389Z,2.67
2018-12-04T17:35:24.205Z,3.13
2018-12-04T17:40:27.870Z,3.30
2018-12-04T17:45:31.648Z,3.50
2018-12-04T17:50:35.626Z,2.90
2018-12-04T17:55:39.660Z,3.35
2018-12-04T18:00:43.463Z,3.00
2018-12-04T18:05:47.270Z,3.30
2018-12-04T18:10:51.798Z,3.90
2018-12-04T18:15:55.345Z,11.97
2018-12-04T18:20:58.910Z,7.73
2018-12-04T18:26:03.739Z,8.47
2018-12-04T18:31:07.298Z,7.85
2018-12-04T18:36:11.031Z,7.97
2018-12-04T18:41:15.006Z,5.50
2018-12-04T18:46:18.931Z,4.73
2018-12-04T18:51:22.484Z,4.13
2018-12-04T18:56:26.584Z,4.60
2018-12-04T19:01:30.398Z,4.50
2018-12-04T19:06:34.218Z,6.33
2018-12-04T19:11:39.287Z,12.10
2018-12-04T19:16:42.875Z,10.17
2018-12-04T19:21:46.569Z,18.87
2018-12-04T19:26:50.427Z,9.33
2018-12-04T19:31:54.048Z,6.37
2018-12-04T19:36:57.750Z,5.37
2018-12-04T19:42:01.675Z,5.10
2018-12-04T19:47:05.764Z,5.00
2018-12-04T19:52:09.357Z,4.97
2018-12-04T19:57:13.529Z,5.23
2018-12-04T20:02:18.761Z,4.73
2018-12-04T20:07:22.535Z,5.83
2018-12-04T20:12:26.073Z,5.00
2018-12-04T20:17:30.164Z,5.22
2018-12-04T20:22:33.960Z,5.27
2018-12-04T20:27:37.625Z,5.92
2018-12-04T20:32:42.541Z,8.93
2018-12-04T20:37:46.417Z,10.13
2018-12-04T20:42:50.389Z,7.90
2018-12-04T20:47:56.188Z,6.43
2018-12-04T20:52:59.973Z,7.07
2018-12-04T20:58:04.493Z,10.10
2018-12-04T21:03:08.113Z,14.57
2018-12-04T21:08:11.762Z,9.40
2018-12-04T21:13:15.464Z,17.57
2018-12-04T21:18:19.272Z,15.73
2018-12-04T21:23:23.450Z,11.33
2018-12-04T21:28:27.058Z,9.80
2018-12-04T21:33:36.397Z,9.50
2018-12-04T21:38:45.260Z,8.20
2018-12-04T21:43:54.468Z,7.73
2018-12-04T21:48:58.776Z,7.90
2018-12-04T21:54:02.417Z,10.57
2018-12-04T21:59:06.535Z,8.13
2018-12-04T22:04:10.089Z,9.83
2018-12-04T22:09:13.726Z,8.03
2018-12-04T22:14:17.259Z,7.83
2018-12-04T22:19:21.212Z,8.03
2018-12-04T22:24:25.128Z,8.67
2018-12-04T22:29:29.685Z,7.37
2018-12-04T22:34:33.974Z,7.40
2018-12-04T22:39:37.555Z,7.60
2018-12-04T22:44:41.246Z,7.60
2018-12-04T22:49:44.781Z,7.13
2018-12-04T22:54:48.599Z,8.50
2018-12-04T22:59:52.057Z,9.47
2018-12-04T23:04:55.596Z,10.33
2018-12-04T23:09:59.215Z,8.75
2018-12-04T23:15:03.030Z,9.70
2018-12-04T23:20:06.764Z,13.43
2018-12-04T23:25:10.425Z,11.30
2018-12-04T23:30:14.212Z,9.53
2018-12-04T23:35:18.079Z,8.97
2018-12-04T23:40:22.608Z,9.60
2018-12-04T23:45:27.808Z,8.20
2018-12-04T23:50:31.634Z,14.30
2018-12-04T23:55:35.872Z,14.50
